createdAt,value
2018-07-12T00:00:47.990Z,51.50
2018-07-12T00:03:15.509Z,51.40
2018-07-12T00:05:43.000Z,52.00
2018-07-12T00:08:10.590Z,52.10
2018-07-12T00:10:38.120Z,52.20
2018-07-12T00:13:05.591Z,51.70
2018-07-12T00:15:33.261Z,52.20
2018-07-12T00:18:00.753Z,52.10
2018-07-12T00:20:28.235Z,51.30
2018-07-12T00:22:55.845Z,51.20
2018-07-12T00:25:23.351Z,51.80
2018-07-12T00:27:50.864Z,51.70
2018-07-12T00:30:18.588Z,51.50
2018-07-12T00:32:46.056Z,51.30
2018-07-12T00:35:13.539Z,51.90
2018-07-12T00:40:09.220Z,51.90
2018-07-12T00:45:04.851Z,52.50
2018-07-12T00:47:32.355Z,52.10
2018-07-12T00:52:27.711Z,52.20
2018-07-12T00:54:55.193Z,52.70
2018-07-12T00:59:50.447Z,52.80
2018-07-12T01:02:17.948Z,53.00
2018-07-12T01:04:45.459Z,52.70
2018-07-12T01:07:13.126Z,53.20
2018-07-12T01:09:40.606Z,53.20
2018-07-12T01:12:08.139Z,52.70
2018-07-12T01:14:35.661Z,53.20
2018-07-12T01:19:30.942Z,52.70
2018-07-12T01:21:58.467Z,53.60
2018-07-12T01:24:25.934Z,53.20
2018-07-12T01:26:53.553Z,53.70
2018-07-12T01:29:21.042Z,53.30
2018-07-12T01:31:48.572Z,52.80
2018-07-12T01:34:16.048Z,53.20
2018-07-12T01:36:43.530Z,52.60
2018-07-12T01:39:10.997Z,53.20
2018-07-12T01:41:38.505Z,53.20
2018-07-12T01:44:06.163Z,52.80
2018-07-12T01:46:33.648Z,52.80
2018-07-12T01:51:28.873Z,52.60
2018-07-12T01:53:56.344Z,53.30
2018-07-12T01:56:23.804Z,53.70
2018-07-12T01:58:51.525Z,52.60
2018-07-12T02:01:18.995Z,52.80
2018-07-12T02:03:46.462Z,53.40
2018-07-12T02:06:13.970Z,53.40
2018-07-12T02:08:41.492Z,53.30
2018-07-12T02:11:08.966Z,53.50
2018-07-12T02:13:36.629Z,52.90
2018-07-12T02:16:04.101Z,53.50
2018-07-12T02:18:31.581Z,53.00
2018-07-12T02:20:59.250Z,52.40
2018-07-12T02:23:27.058Z,48.90
2018-07-12T02:25:54.541Z,53.10
2018-07-12T02:28:22.149Z,52.80
2018-07-12T02:30:49.620Z,53.00
2018-07-12T02:33:17.100Z,53.10
2018-07-12T02:35:44.629Z,53.70
2018-07-12T02:38:12.116Z,53.80
2018-07-12T02:40:39.599Z,53.80
2018-07-12T02:43:07.261Z,53.90
2018-07-12T02:45:34.750Z,53.10
2018-07-12T02:48:02.258Z,53.60
2018-07-12T02:50:29.990Z,53.60
2018-07-12T02:52:57.500Z,53.40
2018-07-12T02:55:24.990Z,53.30
2018-07-12T02:57:52.481Z,53.90
2018-07-12T03:00:19.968Z,53.30
2018-07-12T03:02:47.454Z,53.50
2018-07-12T03:05:15.161Z,53.60
2018-07-12T03:07:42.698Z,53.80
2018-07-12T03:10:10.205Z,54.30
2018-07-12T03:12:37.725Z,54.10
2018-07-12T03:15:05.195Z,53.10
2018-07-12T03:17:32.671Z,53.00
2018-07-12T03:20:00.237Z,53.00
2018-07-12T03:22:27.730Z,53.60
2018-07-12T03:24:55.307Z,52.70
2018-07-12T03:27:23.038Z,53.00
2018-07-12T03:29:50.524Z,53.50
2018-07-12T03:32:17.988Z,53.50
2018-07-12T03:34:45.638Z,53.20
2018-07-12T03:37:13.195Z,53.60
2018-07-12T03:39:40.657Z,53.20
2018-07-12T03:42:08.619Z,53.20
2018-07-12T03:44:36.099Z,53.80
2018-07-12T03:47:03.582Z,53.70
2018-07-12T03:49:31.090Z,53.50
2018-07-12T03:51:58.559Z,54.10
2018-07-12T03:54:26.111Z,54.50
2018-07-12T03:56:53.697Z,54.90
2018-07-12T03:59:21.175Z,55.20
2018-07-12T04:01:48.642Z,55.20
2018-07-12T04:04:16.135Z,55.20
2018-07-12T04:06:43.594Z,55.20
2018-07-12T04:09:11.070Z,55.00
2018-07-12T04:11:38.561Z,55.00
2018-07-12T04:14:06.027Z,55.20
2018-07-12T04:19:01.292Z,54.50
2018-07-12T04:21:28.769Z,55.10
2018-07-12T04:23:56.241Z,54.30
2018-07-12T04:26:24.191Z,55.10
2018-07-12T04:28:51.672Z,56.30
2018-07-12T04:31:19.151Z,55.50
2018-07-12T04:33:46.663Z,54.10
2018-07-12T04:36:14.152Z,54.60
2018-07-12T04:38:41.626Z,54.80
2018-07-12T04:41:09.294Z,55.40
2018-07-12T04:48:32.688Z,54.30
2018-07-12T04:51:00.180Z,54.30
2018-07-12T04:53:27.680Z,54.40
2018-07-12T04:58:23.091Z,53.80
2018-07-12T05:00:50.521Z,53.80
2018-07-12T05:03:18.461Z,54.30
2018-07-12T05:05:45.947Z,54.00
2018-07-12T05:08:13.448Z,53.00
2018-07-12T05:10:41.122Z,53.20
2018-07-12T05:15:36.329Z,52.40
2018-07-12T05:18:04.047Z,53.10
2018-07-12T05:20:31.532Z,51.70
2018-07-12T05:22:59.026Z,51.80
2018-07-12T05:25:26.773Z,52.00
2018-07-12T05:27:54.246Z,52.50
2018-07-12T05:30:21.724Z,52.00
2018-07-12T05:32:49.453Z,51.70
2018-07-12T05:35:16.930Z,51.80
2018-07-12T05:37:45.702Z,51.10
2018-07-12T05:40:14.514Z,51.10
2018-07-12T05:42:43.325Z,51.50
2018-07-12T05:45:12.128Z,52.00
2018-07-12T05:47:40.950Z,51.20
2018-07-12T05:50:09.783Z,51.50
2018-07-12T05:52:38.613Z,52.00
2018-07-12T05:55:07.440Z,52.00
2018-07-12T05:57:36.350Z,51.10
2018-07-12T06:00:05.848Z,49.40
2018-07-12T06:02:34.867Z,48.50
2018-07-12T06:05:03.686Z,47.90
2018-07-12T06:07:32.611Z,48.60
2018-07-12T06:10:01.466Z,47.70
2018-07-12T06:12:30.245Z,47.70
2018-07-12T06:14:59.047Z,48.30
2018-07-12T06:17:27.965Z,48.40
2018-07-12T06:19:56.742Z,48.80
2018-07-12T06:22:25.568Z,48.00
2018-07-12T06:24:54.422Z,45.50
2018-07-12T06:27:23.234Z,46.00
2018-07-12T06:29:52.123Z,45.40
2018-07-12T06:32:20.961Z,44.10
2018-07-12T06:34:49.762Z,44.90
2018-07-12T06:37:18.544Z,42.40
2018-07-12T06:39:47.395Z,41.60
2018-07-12T06:42:16.188Z,41.70
2018-07-12T06:44:45.227Z,42.20
2018-07-12T06:47:14.359Z,42.50
2018-07-12T06:49:43.129Z,42.30
2018-07-12T06:52:11.957Z,40.90
2018-07-12T06:54:40.857Z,40.80
2018-07-12T06:57:09.646Z,41.30
2018-07-12T06:59:38.506Z,40.10
2018-07-12T07:02:07.891Z,40.90
2018-07-12T07:04:36.666Z,39.90
2018-07-12T07:07:05.503Z,39.60
2018-07-12T07:09:35.086Z,38.40
2018-07-12T07:12:03.962Z,39.10
2018-07-12T07:14:32.810Z,39.60
2018-07-12T07:17:01.597Z,39.20
2018-07-12T07:19:30.423Z,38.00
2018-07-12T07:21:59.242Z,37.30
2018-07-12T07:24:28.211Z,35.00
2018-07-12T07:26:57.021Z,35.60
2018-07-12T07:29:25.817Z,35.10
2018-07-12T07:31:55.054Z,33.40
2018-07-12T07:34:23.845Z,33.60
2018-07-12T07:36:52.762Z,32.80
2018-07-12T07:39:21.777Z,33.40
2018-07-12T07:41:50.622Z,32.50
2018-07-12T07:44:19.403Z,31.50
2018-07-12T07:46:48.500Z,30.00
2018-07-12T07:49:17.322Z,29.50
2018-07-12T07:51:46.244Z,29.40
2018-07-12T07:54:15.250Z,28.70
2018-07-12T07:56:44.080Z,26.90
2018-07-12T07:59:12.866Z,27.30
2018-07-12T08:01:41.709Z,26.20
2018-07-12T08:04:10.528Z,25.10
2018-07-12T08:06:39.335Z,23.50
2018-07-12T08:09:08.365Z,22.40
2018-07-12T08:11:37.158Z,22.00
2018-07-12T08:14:05.955Z,20.30
2018-07-12T08:16:34.776Z,19.60
2018-07-12T08:19:03.585Z,19.30
2018-07-12T08:21:32.414Z,17.80
2018-07-12T08:24:01.236Z,16.70
2018-07-12T08:26:30.065Z,16.30
2018-07-12T08:28:58.868Z,15.80
2018-07-12T08:31:27.737Z,14.40
2018-07-12T08:33:56.506Z,14.90
2018-07-12T08:36:25.310Z,13.00
2018-07-12T08:38:54.114Z,13.80
2018-07-12T08:41:22.905Z,13.30
2018-07-12T08:43:51.670Z,13.60
2018-07-12T08:46:20.509Z,12.30
2018-07-12T08:48:49.309Z,12.50
2018-07-12T08:51:18.100Z,13.10
2018-07-12T08:53:47.179Z,12.20
2018-07-12T08:56:15.954Z,11.80
2018-07-12T08:58:44.737Z,11.80
2018-07-12T09:01:13.917Z,11.60
2018-07-12T09:03:42.715Z,11.30
2018-07-12T09:06:11.522Z,9.70
2018-07-12T09:08:40.527Z,10.20
2018-07-12T09:11:09.339Z,9.80
2018-07-12T09:13:38.150Z,9.60
2018-07-12T09:16:06.977Z,9.70
2018-07-12T09:18:35.764Z,10.30
2018-07-12T09:21:04.555Z,9.80
2018-07-12T09:23:33.562Z,9.50
2018-07-12T09:26:02.400Z,9.60
2018-07-12T09:28:31.210Z,9.50
2018-07-12T09:31:00.143Z,8.90
2018-07-12T09:33:28.943Z,9.10
2018-07-12T09:35:57.893Z,9.20
2018-07-12T09:38:44.537Z,8.90
2018-07-12T09:41:13.345Z,8.70
2018-07-12T09:46:12.255Z,7.80
2018-07-12T09:48:42.220Z,6.70
2018-07-12T09:53:41.454Z,6.60
2018-07-12T09:56:10.352Z,8.10
2018-07-12T09:58:39.058Z,8.00
2018-07-12T10:01:13.201Z,7.10
2018-07-12T10:03:47.246Z,8.00
2018-07-12T10:06:21.365Z,7.60
2018-07-12T10:08:57.125Z,8.40
2018-07-12T10:11:31.641Z,6.50
2018-07-12T10:14:05.753Z,7.50
2018-07-12T10:16:39.844Z,7.90
2018-07-12T10:19:08.655Z,6.40
2018-07-12T10:21:37.468Z,6.80
2018-07-12T10:24:06.668Z,6.10
2018-07-12T10:26:35.444Z,6.30
2018-07-12T10:29:04.287Z,5.10
2018-07-12T10:31:33.084Z,6.00
2018-07-12T10:34:01.896Z,6.40
2018-07-12T10:36:30.763Z,6.80
2018-07-12T10:38:59.556Z,6.50
2018-07-12T10:41:28.325Z,6.40
2018-07-12T10:43:57.152Z,5.70
2018-07-12T10:46:26.048Z,5.70
2018-07-12T10:48:54.853Z,6.20
2018-07-12T10:51:23.639Z,6.40
2018-07-12T10:53:52.458Z,5.80
2018-07-12T10:56:21.209Z,6.10
2018-07-12T10:58:50.036Z,7.20
2018-07-12T11:01:19.231Z,6.70
2018-07-12T11:03:47.995Z,7.70
2018-07-12T11:06:16.779Z,7.70
2018-07-12T11:08:45.666Z,7.70
2018-07-12T11:13:52.462Z,8.80
2018-07-12T11:16:21.314Z,10.30
2018-07-12T11:18:50.297Z,10.80
2018-07-12T11:21:19.107Z,10.60
2018-07-12T11:23:47.897Z,10.40
2018-07-12T11:26:16.666Z,11.30
2018-07-12T11:28:45.477Z,13.80
2018-07-12T11:31:14.296Z,14.50
2018-07-12T11:33:44.380Z,14.20
2018-07-12T11:36:13.349Z,13.00
2018-07-12T11:38:43.204Z,14.60
2018-07-12T11:41:13.264Z,14.40
2018-07-12T11:43:42.134Z,15.30
2018-07-12T11:46:12.190Z,17.00
2018-07-12T11:48:41.919Z,17.00
2018-07-12T11:51:10.846Z,17.90
2018-07-12T11:53:39.650Z,17.70
2018-07-12T11:56:08.505Z,18.30
2018-07-12T11:58:37.409Z,17.60
2018-07-12T12:01:06.192Z,18.30
2018-07-12T12:03:35.136Z,17.50
2018-07-12T12:06:04.075Z,18.00
2018-07-12T12:08:32.870Z,19.00
2018-07-12T12:11:01.710Z,18.10
2018-07-12T12:13:30.516Z,19.50
2018-07-12T12:15:59.314Z,19.50
2018-07-12T12:18:28.174Z,18.10
2018-07-12T12:20:57.026Z,18.80
2018-07-12T12:23:25.859Z,19.70
2018-07-12T12:25:54.742Z,19.20
2018-07-12T12:28:23.654Z,19.30
2018-07-12T12:33:20.778Z,20.00
2018-07-12T12:35:49.592Z,21.50
2018-07-12T12:38:18.413Z,21.80
2018-07-12T12:40:47.216Z,21.90
2018-07-12T12:43:16.017Z,22.30
2018-07-12T12:45:44.797Z,22.40
2018-07-12T12:48:13.570Z,22.10
2018-07-12T12:53:10.781Z,21.80
2018-07-12T12:55:39.551Z,22.20
2018-07-12T12:58:08.764Z,21.50
2018-07-12T13:00:37.543Z,21.50
2018-07-12T13:03:06.374Z,21.60
2018-07-12T13:05:35.209Z,21.80
2018-07-12T13:08:04.071Z,21.20
2018-07-12T13:10:32.938Z,21.50
2018-07-12T13:13:01.867Z,22.10
2018-07-12T13:15:30.656Z,22.50
2018-07-12T13:17:59.476Z,22.90
2018-07-12T13:20:28.469Z,25.20
2018-07-12T13:22:57.377Z,26.10
2018-07-12T13:25:26.206Z,26.50
2018-07-12T13:30:24.082Z,26.70
2018-07-12T13:32:52.889Z,26.90
2018-07-12T13:35:21.822Z,27.10
2018-07-12T13:37:50.594Z,26.70
2018-07-12T13:42:48.212Z,27.50
2018-07-12T13:45:17.021Z,27.90
2018-07-12T13:47:45.836Z,28.20
2018-07-12T13:50:14.823Z,28.00
2018-07-12T13:52:43.587Z,28.50
2018-07-12T13:55:12.371Z,28.30
2018-07-12T13:57:41.423Z,28.60
2018-07-12T14:00:10.206Z,29.00
2018-07-12T14:02:39.191Z,29.50
2018-07-12T14:05:08.097Z,29.70
2018-07-12T14:07:36.937Z,29.40
2018-07-12T14:10:06.050Z,29.90
2018-07-12T14:12:34.847Z,30.40
2018-07-12T14:17:43.989Z,30.00
2018-07-12T14:20:12.932Z,30.60
2018-07-12T14:22:41.730Z,30.60
2018-07-12T14:25:10.548Z,30.70
2018-07-12T14:27:39.352Z,30.70
2018-07-12T14:30:08.208Z,31.10
2018-07-12T14:32:37.013Z,30.00
2018-07-12T14:35:05.996Z,30.00
2018-07-12T14:37:34.819Z,30.00
2018-07-12T14:40:03.829Z,30.60
2018-07-12T14:42:32.709Z,31.20
2018-07-12T14:45:01.542Z,31.70
2018-07-12T14:47:30.375Z,30.30
2018-07-12T14:52:27.672Z,31.40
2018-07-12T14:57:24.861Z,31.00
2018-07-12T14:59:53.622Z,31.10
2018-07-12T15:02:22.448Z,30.50
2018-07-12T15:04:51.241Z,30.40
2018-07-12T15:07:20.094Z,29.90
2018-07-12T15:09:48.935Z,30.00
2018-07-12T15:12:17.762Z,30.50
2018-07-12T15:14:46.574Z,30.90
2018-07-12T15:17:15.414Z,31.30
2018-07-12T15:19:44.204Z,31.10
2018-07-12T15:24:41.482Z,31.20
2018-07-12T15:27:10.270Z,30.70
2018-07-12T15:29:39.292Z,30.60
2018-07-12T15:32:08.987Z,31.10
2018-07-12T15:34:37.825Z,29.60
2018-07-12T15:37:06.679Z,29.90
2018-07-12T15:42:04.003Z,29.40
2018-07-12T15:47:01.424Z,29.70
2018-07-12T15:51:58.602Z,30.70
2018-07-12T15:56:55.898Z,30.90
2018-07-12T16:09:18.766Z,30.20
2018-07-12T16:11:47.617Z,30.50
2018-07-12T16:31:36.565Z,31.20
2018-07-12T16:39:02.389Z,31.20
2018-07-12T16:45:28.908Z,31.60
2018-07-12T16:47:57.825Z,32.60
2018-07-12T16:50:26.627Z,32.90
2018-07-12T16:55:24.098Z,33.20
2018-07-12T16:57:52.994Z,33.60
2018-07-12T17:00:21.848Z,32.40
2018-07-12T17:05:19.558Z,32.80
2018-07-12T17:07:48.552Z,32.80
2018-07-12T17:10:17.375Z,33.10
2018-07-12T17:12:46.310Z,33.40
2018-07-12T17:17:43.965Z,33.90
2018-07-12T17:20:12.805Z,33.70
2018-07-12T17:22:41.864Z,33.80
2018-07-12T17:25:10.698Z,34.00
2018-07-12T17:30:08.042Z,34.30
2018-07-12T17:32:36.838Z,34.60
2018-07-12T17:37:34.467Z,35.30
2018-07-12T17:40:03.373Z,35.70
2018-07-12T17:45:00.666Z,34.40
2018-07-12T17:47:29.683Z,36.30
2018-07-12T17:52:26.866Z,36.90
2018-07-12T17:59:52.470Z,37.00
2018-07-12T18:04:49.697Z,37.70
2018-07-12T18:09:46.973Z,38.10
2018-07-12T18:12:15.803Z,38.30
2018-07-12T18:17:13.527Z,38.80
2018-07-12T18:19:42.340Z,39.30
2018-07-12T18:27:08.137Z,40.60
2018-07-12T18:29:36.969Z,40.60
2018-07-12T18:34:34.609Z,41.20
2018-07-12T18:39:31.905Z,41.80
2018-07-12T18:42:00.740Z,41.90
2018-07-12T18:46:57.982Z,42.30
2018-07-12T18:49:26.821Z,42.50
2018-07-12T18:54:24.112Z,43.00
2018-07-12T18:56:52.902Z,43.20
2018-07-12T18:59:21.911Z,43.40
2018-07-12T19:01:50.771Z,43.70
2018-07-12T19:04:19.600Z,44.00
2018-07-12T19:09:17.036Z,44.10
2018-07-12T19:11:45.886Z,44.50
2018-07-12T19:14:15.053Z,44.60
2018-07-12T19:16:43.880Z,44.60
2018-07-12T19:19:12.742Z,44.90
2018-07-12T19:21:41.576Z,45.20
2018-07-12T19:24:10.593Z,45.10
2018-07-12T19:26:39.407Z,45.30
2018-07-12T19:29:08.613Z,45.60
2018-07-12T19:31:37.513Z,45.50
2018-07-12T19:34:06.316Z,45.70
2018-07-12T19:36:35.493Z,45.60
2018-07-12T19:39:06.288Z,45.70
2018-07-12T19:41:35.165Z,45.90
2018-07-12T19:49:00.909Z,46.00
2018-07-12T19:51:30.016Z,46.00
2018-07-12T19:56:27.368Z,46.00
2018-07-12T19:58:56.371Z,46.20
2018-07-12T20:01:25.256Z,46.20
2018-07-12T20:03:54.159Z,46.30
2018-07-12T20:06:22.984Z,46.40
2018-07-12T20:08:51.882Z,46.60
2018-07-12T20:13:49.163Z,46.70
2018-07-12T20:16:17.997Z,46.70
2018-07-12T20:18:46.788Z,46.90
2018-07-12T20:21:15.904Z,47.50
2018-07-12T20:23:44.743Z,47.10
2018-07-12T20:26:13.526Z,47.10
2018-07-12T20:28:42.481Z,47.20
2018-07-12T20:31:11.311Z,47.30
2018-07-12T20:33:40.263Z,47.50
2018-07-12T20:38:37.576Z,47.50
2018-07-12T20:41:06.424Z,47.50
2018-07-12T20:43:35.247Z,48.00
2018-07-12T20:46:04.119Z,47.80
2018-07-12T20:48:32.929Z,47.80
2018-07-12T20:51:01.876Z,48.40
2018-07-12T20:53:30.683Z,48.00
2018-07-12T20:55:59.538Z,48.10
2018-07-12T21:00:57.022Z,48.20
2018-07-12T21:03:25.736Z,48.80
2018-07-12T21:05:54.631Z,48.10
2018-07-12T21:08:23.402Z,48.70
2018-07-12T21:10:52.196Z,48.10
2018-07-12T21:13:21.044Z,48.60
2018-07-12T21:15:49.829Z,48.70
2018-07-12T21:18:18.619Z,48.80
2018-07-12T21:20:47.427Z,48.80
2018-07-12T21:23:16.216Z,48.60
2018-07-12T21:25:45.083Z,48.60
2018-07-12T21:28:13.904Z,49.20
2018-07-12T21:30:42.693Z,49.30
2018-07-12T21:33:11.518Z,49.00
2018-07-12T21:35:40.299Z,49.10
2018-07-12T21:38:09.087Z,48.80
2018-07-12T21:40:37.863Z,49.50
2018-07-12T21:43:06.698Z,48.90
2018-07-12T21:45:35.525Z,49.50
2018-07-12T21:48:04.452Z,49.60
2018-07-12T21:53:02.146Z,49.30
2018-07-12T21:55:30.937Z,49.30
2018-07-12T21:58:00.104Z,49.90
2018-07-12T22:00:31.458Z,49.40
2018-07-12T22:03:00.365Z,49.60
2018-07-12T22:05:29.623Z,49.30
2018-07-12T22:08:10.529Z,49.90
2018-07-12T22:10:39.517Z,49.20
2018-07-12T22:13:08.393Z,49.00
2018-07-12T22:15:37.176Z,48.90
2018-07-12T22:18:06.046Z,49.50
2018-07-12T22:20:34.852Z,49.10
2018-07-12T22:25:32.975Z,49.40
2018-07-12T22:28:01.806Z,49.70
2018-07-12T22:30:30.935Z,50.20
2018-07-12T22:33:01.020Z,50.00
2018-07-12T22:35:29.841Z,50.50
2018-07-12T22:37:59.825Z,50.20
2018-07-12T22:40:29.154Z,50.30
2018-07-12T22:42:58.223Z,50.90
2018-07-12T22:45:27.022Z,50.70
2018-07-12T22:47:56.169Z,51.20
2018-07-12T22:50:24.970Z,51.20
2018-07-12T22:52:53.802Z,50.80
2018-07-12T22:55:22.813Z,51.30
2018-07-12T22:57:51.601Z,51.30
2018-07-12T23:00:20.383Z,51.10
2018-07-12T23:02:49.244Z,50.90
2018-07-12T23:05:18.020Z,50.50
2018-07-12T23:07:46.790Z,50.40
2018-07-12T23:10:15.864Z,51.00
2018-07-12T23:12:44.671Z,50.50
2018-07-12T23:15:13.451Z,50.70
2018-07-12T23:17:42.588Z,51.30
2018-07-12T23:20:11.354Z,51.40
2018-07-12T23:22:40.167Z,50.90
2018-07-12T23:25:08.991Z,51.00
2018-07-12T23:27:37.769Z,51.50
2018-07-12T23:30:06.593Z,51.10
2018-07-12T23:32:35.398Z,51.60
2018-07-12T23:35:04.216Z,51.60
2018-07-12T23:37:33.009Z,51.60
2018-07-12T23:40:01.809Z,51.20
2018-07-12T23:42:30.622Z,51.40
2018-07-12T23:44:59.392Z,51.50
2018-07-12T23:47:28.302Z,51.80
2018-07-12T23:52:25.478Z,52.20
2018-07-12T23:54:54.281Z,52.30
2018-07-12T23:57:23.081Z,52.20
2018-07-12T23:59:51.966Z,52.60
